Metar Cercanos

 

LEPA - Palma De Mallorc, Spain
Distance from station: ONO 38km
Actualización: Fri, 03-Feb-2023 7:00am CET
Few Clouds
Few Clouds
 Viento del varies
Viento: varies 2 km/h
Temperatura: 0°C
Rocío: 0°C
Humedad: 100%
Barómetro: 1029 hPa
Clouds: Few Clouds
Visibility: 10 km
Cloud details: Few Clouds 762 m
2023/02/03 06:00 LEPA 030600Z VRB01KT 9999 FEW025 00/M00 Q1029 NOSIG
LEMH - Mahon/Menorca Is, Spain
Distance from station: ENE 105km
Actualización: Fri, 03-Feb-2023 7:00am CET
Muy nuboso
Muy nuboso
 Viento del NNE
Viento: NNE 20 km/h
Temperatura: 11°C
Rocío: 6°C
Humedad: 72%
Barómetro: 1029 hPa
Clouds: Muy nuboso
Visibility: 10 km
Cloud details: Muy nuboso 732 m
2023/02/03 06:00 LEMH 030600Z 03011KT 9999 BKN024 11/06 Q1029
 
LEIB - Ibiza/Es Codola, Spain
Distance from station: OSO 165km
Actualización: Fri, 03-Feb-2023 7:00am CET
Despejado
Despejado
 Viento del varies
Viento: varies 2 km/h
Temperatura: 6°C
Rocío: 5°C
Humedad: 93%
Barómetro: 1030 hPa
Resumen: Despejado
Visibility: greater than 10 km
2023/02/03 06:00 LEIB 030600Z VRB01KT CAVOK 06/05 Q1030 NOSIG
LEBL - Barcelona Airpor, Spain
Distance from station: NNO 225km
Actualización: Fri, 03-Feb-2023 7:00am CET
Despejado
Despejado
 Viento del NO
Viento: NO 24 km/h
Temperatura: 5°C
Sensación frio: 1°C
Rocío: -1°C
Humedad: 66%
Barómetro: 1030 hPa
Resumen: Despejado
Visibility: greater than 10 km
2023/02/03 06:00 LEBL 030600Z 32013KT CAVOK 05/M01 Q1030 NOSIG
 
LEVC - Valencia (civ/Mi, Spain
Distance from station: NO 188km
Actualización: Fri, 03-Feb-2023 7:00am CET
Few Clouds
Few Clouds
 Viento del ONO
Viento: ONO 11 km/h
Temperatura: 1°C
Sensación frio: -2°C
Rocío: -3°C
Humedad: 75%
Barómetro: 1031 hPa
Clouds: Few Clouds
Visibility: 10 km
Cloud details: Few Clouds 1219 m
2023/02/03 06:00 LEVC 030600Z 29006KT 9999 FEW040 01/M03 Q1031 NOSIG
LEGE - Gerona/Costa Bra, Spain
Distance from station: N 276km
Actualización: Fri, 03-Feb-2023 7:00am CET
Despejado
Despejado
 Viento del O
Viento: O 6 km/h
Temperatura: -2°C
Rocío: -3°C
Humedad: 93%
Barómetro: 1029 hPa
Resumen: Despejado
Visibility: greater than 10 km
2023/02/03 06:00 LEGE 030600Z 27003KT 240V030 CAVOK M02/M03 Q1029
 
LEAL - Alicante/El Alte, Spain
Distance from station: OSO 344km
Actualización: Fri, 03-Feb-2023 7:00am CET
Despejado
Despejado
 Viento del calm
Viento: Calma
Temperatura: 2°C
Rocío: -1°C
Humedad: 81%
Barómetro: 1030 hPa
Resumen: Despejado
Visibility: greater than 10 km
2023/02/03 06:00 LEAL 030600Z 00000KT CAVOK 02/M01 Q1030 NOSIG
LEAM - Almeria Airport, Spain
Distance from station: SSO 56km
Actualización: Fri, 03-Feb-2023 7:00am CET
Despejado
Despejado
 Viento del NNO
Viento: NNO 15 km/h
Temperatura: 6°C
Sensación frio: 3°C
Rocío: 2°C
Humedad: 76%
Barómetro: 1030 hPa
Resumen: Despejado
Visibility: greater than 10 km
2023/02/03 06:00 LEAM 030600Z 34008KT CAVOK 06/02 Q1030
 
LEZG - Zaragoza (mil/Ci, Spain
Distance from station: NO 431km
Actualización: Fri, 03-Feb-2023 7:00am CET
Despejado
Despejado
 Viento del varies
Viento: varies 4 km/h
Temperatura: 0°C
Rocío: -3°C
Humedad: 80%
Barómetro: 1032 hPa
Resumen: Despejado
Visibility: greater than 10 km
2023/02/03 06:00 LEZG 030600Z VRB02KT CAVOK M00/M03 Q1032
LEMD - Madrid/Barajas, Spain
Distance from station: ONO 234km
Actualización: Fri, 03-Feb-2023 7:00am CET
Despejado
Despejado
 Viento del N
Viento: N 6 km/h
Temperatura: -2°C
Rocío: -4°C
Humedad: 86%
Barómetro: 1031 hPa
Resumen: Despejado
Visibility: greater than 10 km
2023/02/03 06:00 LEMD 030600Z 01003KT CAVOK M02/M04 Q1031 NOSIG
 
LEGR - Granada Airport, Spain
Distance from station: OSO 62km
Actualización: Fri, 03-Feb-2023 7:00am CET
Despejado
Despejado
 Viento del SSE
Viento: SSE 6 km/h
Temperatura: -4°C
Rocío: -5°C
Humedad: 93%
Barómetro: 1030 hPa
Resumen: Despejado
Visibility: greater than 10 km
2023/02/03 06:00 LEGR 030600Z 15003KT CAVOK M04/M05 Q1030
LEMG - Malaga (civ/Mil), Spain
Distance from station: OSO 227km
Actualización: Fri, 03-Feb-2023 7:00am CET
Despejado
Despejado
 Viento del O
Viento: O 19 km/h
Temperatura: 6°C
Sensación frio: 3°C
Rocío: 4°C
Humedad: 87%
Barómetro: 1030 hPa
Resumen: Despejado
Visibility: greater than 10 km
2023/02/03 06:00 LEMG 030600Z 28010KT CAVOK 06/04 Q1030 NOSIG
 
LEZL - Sevilla (civ/Mil, Spain
Distance from station: S 318km
Actualización: Fri, 03-Feb-2023 7:00am CET
Despejado
Despejado
 Viento del N
Viento: N 9 km/h
Temperatura: 3°C
Sensación frio: 0°C
Rocío: 1°C
Humedad: 87%
Barómetro: 1030 hPa
Resumen: Despejado
Visibility: greater than 10 km
2023/02/03 06:00 LEZL 030600Z 01005KT CAVOK 03/01 Q1030 NOSIG
LEVT - Vitoria, Spain
Distance from station: NO 226km
Actualización: Fri, 03-Feb-2023 7:00am CET
Freezing fog, Cubierto
Freezing fog, Cubierto
 Viento del varies
Viento: varies 2 km/h
Temperatura: -3°C
Rocío: -3°C
Humedad: 100%
Barómetro: 1033 hPa
Resumen: Freezing Fog
Clouds: Cubierto
Visibility: 0 km
Cloud details: Cubierto 30 m
2023/02/03 06:00 LEVT 030600Z VRB01KT 0300 R04/0325N R22/0400N FZFG VV001 M03/M03 Q1033
 
LEBB - Bilbao/Sondica, Spain
Distance from station: NNO 235km
Actualización: Fri, 03-Feb-2023 7:00am CET
Parcialmente nuboso
Parcialmente nuboso
 Viento del ENE
Viento: ENE 6 km/h
Temperatura: 0°C
Rocío: 0°C
Humedad: 100%
Barómetro: 1035 hPa
Clouds: Parcialmente nuboso
Visibility: 7 km
2023/02/03 06:00 LEBB 030600Z 07003KT 7000 NSC M00/M00 Q1035 TEMPO 3000 BR
LESO - San Sebastian/Fu, Spain
Distance from station: N 231km
Actualización: Fri, 03-Feb-2023 7:00am CET
Despejado
Despejado
 Viento del varies
Viento: varies 4 km/h
Temperatura: 1°C
Rocío: 0°C
Humedad: 93%
Barómetro: 1035 hPa
Resumen: Despejado
Visibility: greater than 10 km
2023/02/03 06:00 LESO 030600Z VRB02KT CAVOK 01/00 Q1035
 
LEVD - Valladolid(Mil/C, Spain
Distance from station: ONO 239km
Actualización: Fri, 03-Feb-2023 7:00am CET
Despejado
Despejado
 Viento del N
Viento: N 7 km/h
Temperatura: -5°C
Sensación frio: -8°C
Rocío: -7°C
Humedad: 86%
Barómetro: 1031 hPa
Resumen: Despejado
Visibility: greater than 10 km
2023/02/03 06:00 LEVD 030600Z 01004KT CAVOK M05/M07 Q1031
LESA - Salamanca (civ/M, Spain
Distance from station: ONO 349km
Actualización: Fri, 03-Feb-2023 7:00am CET
Mist, Few clouds
Mist, Few clouds
 Viento del S
Viento: S 6 km/h
Temperatura: -5°C
Rocío: -6°C
Humedad: 93%
Barómetro: 1032 hPa
Resumen: Mist
Clouds: Few Clouds
Visibility: 4 km
Cloud details: Few Clouds 91 m
2023/02/03 06:00 LESA 030600Z 17003KT 4000 BR FEW003 M05/M06 Q1032
 
LEXJ - Santander/Paraya, Spain
Distance from station: NNO 247km
Actualización: Fri, 03-Feb-2023 7:00am CET
Despejado
Despejado
 Viento del varies
Viento: varies 2 km/h
Temperatura: 1°C
Rocío: 0°C
Humedad: 93%
Barómetro: 1034 hPa
Resumen: Despejado
Visibility: greater than 10 km
2023/02/03 06:00 LEXJ 030600Z VRB01KT CAVOK 01/M00 Q1034
LEAS - Asturias/Aviles, Spain
Distance from station: NO 214km
Actualización: Fri, 03-Feb-2023 7:00am CET
Despejado
Despejado
 Viento del ESE
Viento: ESE 6 km/h
Temperatura: 6°C
Rocío: 4°C
Humedad: 87%
Barómetro: 1033 hPa
Resumen: Despejado
Visibility: greater than 10 km
2023/02/03 06:00 LEAS 030600Z 12003KT 070V170 CAVOK 06/04 Q1033 NOSIG
 
LECO - La Coruna/Alvedr, Spain
Distance from station: ONO 222km
Actualización: Fri, 03-Feb-2023 7:00am CET
Few Clouds
Few Clouds
 Viento del S
Viento: S 9 km/h
Temperatura: 0°C
Sensación frio: -3°C
Rocío: 0°C
Humedad: 100%
Barómetro: 1032 hPa
Clouds: Few Clouds
Visibility: 10 km
Cloud details: Few Clouds 244 m
2023/02/03 06:00 LECO 030600Z 17005KT 9999 FEW008 00/M00 Q1032 TEMPO 3000 BR
LEVX - Vigo/Peinador, Spain
Distance from station: O 214km
Actualización: Fri, 03-Feb-2023 7:00am CET
Despejado
Despejado
 Viento del SO
Viento: SO 9 km/h
Temperatura: 5°C
Sensación frio: 3°C
Rocío: 1°C
Humedad: 76%
Barómetro: 1032 hPa
Resumen: Despejado
Visibility: greater than 10 km
2023/02/03 06:00 LEVX 030600Z 22005KT 180V260 CAVOK 05/01 Q1032 NOSIG